BTR50 LZIB-LFMN
Flight info
| Callsign | BTR50 |
|---|---|
| Flight time | N/A |
| Altitude | 38000 |
| Route | TOVKA2E TOVKA DCT GRZ DCT RIFEN/N0455F390 DCT ARDAM DCT BIKTU/N0447F290 DCT TOBGA/N0451F300 DCT DOBIM DCT AKUTI R16 KERIT KERIT8R |
| Aircraft | B38M/M-SDE1FGHILORVWXY/HB1 |
Departure
| Time | 2026-04-29 16:45 |
|---|---|
| Airport | M. R. Štefánik Airport (LZIB) |
Arrival
| Time | N/A |
|---|---|
| Airport | Nice-Côte d'Azur Airport (LFMN) |
| Time | Latitude | Longitude | Altitude | Speed | Heading |
|---|---|---|---|---|---|
| 2026-04-29 16:32 | 48.16890 | 17.20060 | 437 ft | 0 kts | 314° |
| 2026-04-29 16:39 | 48.16881 | 17.20074 | 437 ft | 3 kts | 315° |
| 2026-04-29 16:39 | 48.16864 | 17.20098 | 436 ft | 3 kts | 316° |
| 2026-04-29 16:40 | 48.16857 | 17.20108 | 436 ft | 0 kts | 316° |
| 2026-04-29 16:41 | 48.16859 | 17.20106 | 436 ft | 1 kts | 316° |
| 2026-04-29 16:41 | 48.16837 | 17.20059 | 436 ft | 14 kts | 225° |
| 2026-04-29 16:42 | 48.16714 | 17.19982 | 436 ft | 20 kts | 163° |
| 2026-04-29 16:42 | 48.16677 | 17.20170 | 433 ft | 21 kts | 87° |
| 2026-04-29 16:42 | 48.16605 | 17.20249 | 432 ft | 18 kts | 222° |
| 2026-04-29 16:42 | 48.16504 | 17.20113 | 432 ft | 21 kts | 219° |
| 2026-04-29 16:43 | 48.16377 | 17.19952 | 433 ft | 25 kts | 221° |
| 2026-04-29 16:43 | 48.16240 | 17.19791 | 436 ft | 22 kts | 192° |
| 2026-04-29 16:43 | 48.16124 | 17.19905 | 435 ft | 21 kts | 126° |
| 2026-04-29 16:43 | 48.16145 | 17.20033 | 432 ft | 4 kts | 44° |
| 2026-04-29 16:44 | 48.16149 | 17.20038 | 432 ft | 1 kts | 44° |
| 2026-04-29 16:44 | 48.16158 | 17.20052 | 432 ft | 2 kts | 43° |
| 2026-04-29 16:44 | 48.16171 | 17.20070 | 432 ft | 3 kts | 43° |
| 2026-04-29 16:44 | 48.16283 | 17.20228 | 432 ft | 54 kts | 43° |
| 2026-04-29 16:45 | 48.16713 | 17.20845 | 429 ft | 115 kts | 44° |
| 2026-04-29 16:45 | 48.17397 | 17.21851 | 571 ft | 147 kts | 45° |
| 2026-04-29 16:45 | 48.18040 | 17.22950 | 1295 ft | 140 kts | 47° |
| 2026-04-29 16:45 | 48.18773 | 17.23995 | 1775 ft | 152 kts | 38° |
| 2026-04-29 16:46 | 48.19594 | 17.25059 | 2282 ft | 160 kts | 41° |
| 2026-04-29 16:46 | 48.20442 | 17.26270 | 2622 ft | 179 kts | 43° |
| 2026-04-29 16:46 | 48.21364 | 17.27618 | 3064 ft | 193 kts | 43° |
| 2026-04-29 16:46 | 48.22368 | 17.28988 | 3691 ft | 197 kts | 33° |
| 2026-04-29 16:47 | 48.23653 | 17.29688 | 4337 ft | 201 kts | 7° |
| 2026-04-29 16:47 | 48.25048 | 17.29530 | 5044 ft | 204 kts | 349° |
| 2026-04-29 16:47 | 48.26364 | 17.28730 | 5735 ft | 216 kts | 328° |
| 2026-04-29 16:47 | 48.27352 | 17.27042 | 6898 ft | 220 kts | 302° |
| 2026-04-29 16:48 | 48.27832 | 17.24890 | 7993 ft | 223 kts | 282° |
| 2026-04-29 16:48 | 48.27710 | 17.22580 | 8980 ft | 233 kts | 255° |
| 2026-04-29 16:48 | 48.26841 | 17.20478 | 10017 ft | 241 kts | 234° |
| 2026-04-29 16:48 | 48.25694 | 17.18650 | 10897 ft | 245 kts | 232° |
| 2026-04-29 16:49 | 48.24507 | 17.16800 | 11765 ft | 248 kts | 233° |
| 2026-04-29 16:49 | 48.23342 | 17.14947 | 12582 ft | 249 kts | 235° |
| 2026-04-29 16:49 | 48.22268 | 17.12921 | 13406 ft | 246 kts | 247° |
| 2026-04-29 16:49 | 48.21783 | 17.10558 | 14234 ft | 235 kts | 274° |
| 2026-04-29 16:50 | 48.21987 | 17.08123 | 14823 ft | 239 kts | 291° |
| 2026-04-29 16:50 | 48.22614 | 17.05760 | 15349 ft | 251 kts | 298° |
| 2026-04-29 16:50 | 48.23404 | 17.03392 | 15831 ft | 264 kts | 300° |
| 2026-04-29 16:50 | 48.24275 | 17.00863 | 16303 ft | 277 kts | 299° |
| 2026-04-29 16:51 | 48.25055 | 16.98112 | 16723 ft | 295 kts | 289° |
| 2026-04-29 16:51 | 48.25271 | 16.94982 | 17123 ft | 316 kts | 269° |
| 2026-04-29 16:51 | 48.24681 | 16.91765 | 17828 ft | 329 kts | 251° |
| 2026-04-29 16:51 | 48.23499 | 16.88765 | 18540 ft | 339 kts | 238° |
| 2026-04-29 16:52 | 48.21817 | 16.86221 | 19227 ft | 349 kts | 226° |
| 2026-04-29 16:52 | 48.19878 | 16.83962 | 19883 ft | 353 kts | 223° |
| 2026-04-29 16:52 | 48.17906 | 16.81792 | 20506 ft | 356 kts | 223° |
| 2026-04-29 16:52 | 48.15927 | 16.79616 | 21167 ft | 356 kts | 223° |
| 2026-04-29 16:53 | 48.13938 | 16.77400 | 21693 ft | 360 kts | 223° |
| 2026-04-29 16:53 | 48.11939 | 16.75144 | 22309 ft | 360 kts | 224° |
| 2026-04-29 16:53 | 48.09946 | 16.72876 | 22867 ft | 361 kts | 224° |
| 2026-04-29 16:53 | 48.07930 | 16.70568 | 23312 ft | 366 kts | 224° |
| 2026-04-29 16:54 | 48.05918 | 16.68260 | 23859 ft | 367 kts | 224° |
| 2026-04-29 16:54 | 48.03881 | 16.65925 | 24336 ft | 369 kts | 224° |
| 2026-04-29 16:54 | 48.01831 | 16.63574 | 24840 ft | 370 kts | 224° |
| 2026-04-29 16:54 | 47.99793 | 16.61241 | 25264 ft | 374 kts | 224° |
| 2026-04-29 16:55 | 47.97725 | 16.58874 | 25694 ft | 376 kts | 224° |
| 2026-04-29 16:55 | 47.95644 | 16.56497 | 26096 ft | 379 kts | 224° |
| 2026-04-29 16:55 | 47.93530 | 16.54082 | 26520 ft | 382 kts | 224° |
| 2026-04-29 16:55 | 47.91420 | 16.51676 | 26936 ft | 384 kts | 224° |
| 2026-04-29 16:56 | 47.89303 | 16.49264 | 27378 ft | 385 kts | 224° |
| 2026-04-29 16:56 | 47.87167 | 16.46832 | 27736 ft | 388 kts | 224° |
| 2026-04-29 16:56 | 47.85038 | 16.44410 | 28137 ft | 390 kts | 224° |
| 2026-04-29 16:56 | 47.82864 | 16.41942 | 28516 ft | 392 kts | 224° |
| 2026-04-29 16:57 | 47.80682 | 16.39468 | 28835 ft | 395 kts | 224° |
| 2026-04-29 16:57 | 47.78499 | 16.36997 | 29244 ft | 396 kts | 224° |
| 2026-04-29 16:57 | 47.76332 | 16.34545 | 29598 ft | 398 kts | 224° |
| 2026-04-29 16:57 | 47.74123 | 16.32051 | 29941 ft | 401 kts | 223° |
| 2026-04-29 16:58 | 47.71901 | 16.29543 | 30351 ft | 402 kts | 223° |
| 2026-04-29 16:58 | 47.69673 | 16.27030 | 30673 ft | 405 kts | 223° |
| 2026-04-29 16:58 | 47.67449 | 16.24524 | 31015 ft | 406 kts | 224° |
| 2026-04-29 16:58 | 47.65186 | 16.21976 | 31332 ft | 407 kts | 224° |
| 2026-04-29 16:59 | 47.62918 | 16.19424 | 31513 ft | 413 kts | 223° |
| 2026-04-29 16:59 | 47.60664 | 16.16892 | 31852 ft | 413 kts | 224° |
| 2026-04-29 16:59 | 47.58364 | 16.14311 | 32123 ft | 416 kts | 224° |
| 2026-04-29 16:59 | 47.56057 | 16.11727 | 32449 ft | 416 kts | 224° |
| 2026-04-29 17:00 | 47.53751 | 16.09145 | 32716 ft | 419 kts | 224° |
| 2026-04-29 17:00 | 47.51415 | 16.06535 | 33000 ft | 420 kts | 224° |
| 2026-04-29 17:00 | 47.49070 | 16.03913 | 33220 ft | 424 kts | 224° |
| 2026-04-29 17:00 | 47.46757 | 16.01334 | 33591 ft | 423 kts | 224° |
| 2026-04-29 17:01 | 47.44389 | 15.98693 | 33741 ft | 428 kts | 224° |
| 2026-04-29 17:01 | 47.42004 | 15.96039 | 34069 ft | 428 kts | 224° |
| 2026-04-29 17:01 | 47.39895 | 15.93697 | 34343 ft | 429 kts | 224° |
| 2026-04-29 17:01 | 47.37722 | 15.91285 | 34499 ft | 432 kts | 224° |